Time,TemperatureF,DewpointF,PressureIn,WindDirection,WindDirectionDegrees,WindSpeedMPH,WindSpeedGustMPH,Humidity,HourlyPrecipIn,Conditions,Clouds,dailyrainin,SoftwareType,DateUTC
2013-02-15 00:07:00,22.5,10.3,30.33,ENE,76,0.0,3.0,59,0.00,,,0.01,Wunderground v.1.15,2013-02-15 07:07:00,
2013-02-15 00:16:00,22.4,9.8,30.33,ENE,76,0.0,3.0,58,0.00,,,0.01,Wunderground v.1.15,2013-02-15 07:16:00,
2013-02-15 00:21:00,22.2,10.0,30.33,ENE,76,0.0,3.0,59,0.00,,,0.00,Wunderground v.1.15,2013-02-15 07:21:00,
2013-02-15 00:26:00,22.2,10.0,30.33,ENE,76,0.0,3.0,59,0.00,,,0.00,Wunderground v.1.15,2013-02-15 07:26:00,
2013-02-15 00:36:00,21.9,9.7,30.34,NE,54,0.0,3.0,59,0.00,,,0.00,Wunderground v.1.15,2013-02-15 07:36:00,
2013-02-15 00:41:00,21.9,9.7,30.34,NE,54,0.0,3.0,59,0.00,,,0.00,Wunderground v.1.15,2013-02-15 07:41:00,
2013-02-15 00:51:00,21.6,9.5,30.34,NE,54,0.0,3.0,59,0.00,,,0.00,Wunderground v.1.15,2013-02-15 07:51:00,
2013-02-15 01:01:00,21.3,9.6,30.34,NE,54,0.0,3.0,60,0.00,,,0.00,Wunderground v.1.15,2013-02-15 08:01:00,
2013-02-15 01:07:00,21.1,9.4,30.34,NE,54,0.0,3.0,60,0.00,,,0.00,Wunderground v.1.15,2013-02-15 08:07:00,
2013-02-15 01:16:00,21.0,9.3,30.34,NE,54,0.0,3.0,60,0.00,,,0.00,Wunderground v.1.15,2013-02-15 08:16:00,
2013-02-15 01:21:00,20.8,9.1,30.34,NE,54,0.0,3.0,60,0.00,,,0.00,Wunderground v.1.15,2013-02-15 08:21:00,
2013-02-15 01:31:00,20.5,8.8,30.34,NE,54,0.0,3.0,60,0.00,,,0.00,Wunderground v.1.15,2013-02-15 08:31:00,
2013-02-15 01:36:00,20.3,8.6,30.34,NE,54,0.0,3.0,60,0.00,,,0.00,Wunderground v.1.15,2013-02-15 08:36:00,
2013-02-15 01:46:00,19.9,8.2,30.34,NE,54,0.0,3.0,60,0.00,,,0.00,Wunderground v.1.15,2013-02-15 08:46:00,
2013-02-15 01:51:00,19.7,8.0,30.34,NE,54,0.0,3.0,60,0.00,,,0.00,Wunderground v.1.15,2013-02-15 08:51:00,
2013-02-15 02:01:00,19.1,7.5,30.35,NE,54,0.0,3.0,60,0.00,,,0.00,Wunderground v.1.15,2013-02-15 09:01:00,
2013-02-15 02:07:00,18.8,7.2,30.35,NE,54,0.0,3.0,60,0.00,,,0.00,Wunderground v.1.15,2013-02-15 09:07:00,
2013-02-15 02:16:00,18.1,6.5,30.35,NE,54,0.0,3.0,60,0.00,,,0.00,Wunderground v.1.15,2013-02-15 09:16:00,
2013-02-15 02:21:00,17.8,6.2,30.36,NE,54,0.0,3.0,60,0.00,,,0.00,Wunderground v.1.15,2013-02-15 09:21:00,
2013-02-15 07:16:00,18.1,10.3,30.40,NE,54,0.0,3.0,71,0.00,,,0.00,Wunderground v.1.15,2013-02-15 14:16:00,
2013-02-15 07:21:00,18.1,10.3,30.40,NE,54,0.0,3.0,71,0.00,,,0.00,Wunderground v.1.15,2013-02-15 14:21:00,
2013-02-15 07:31:00,18.3,10.1,30.41,NE,54,0.0,3.0,70,0.00,,,0.00,Wunderground v.1.15,2013-02-15 14:31:00,
2013-02-15 07:41:00,18.4,10.2,30.41,NE,54,0.0,3.0,70,0.00,,,0.00,Wunderground v.1.15,2013-02-15 14:41:00,
2013-02-15 07:46:00,18.6,10.4,30.40,NE,54,0.0,3.0,70,0.00,,,0.00,Wunderground v.1.15,2013-02-15 14:46:00,
2013-02-15 07:56:00,19.1,10.9,30.40,NE,54,0.0,3.0,70,0.00,,,0.00,Wunderground v.1.15,2013-02-15 14:56:00,
2013-02-15 08:07:00,19.7,11.5,30.41,NE,54,0.0,3.0,70,0.00,,,0.00,Wunderground v.1.15,2013-02-15 15:07:00,
2013-02-15 08:16:00,20.2,12.0,30.41,NE,54,0.0,3.0,70,0.00,,,0.00,Wunderground v.1.15,2013-02-15 15:16:00,
2013-02-15 08:26:00,20.6,12.0,30.41,NE,55,0.0,3.0,69,0.00,,,0.00,Wunderground v.1.15,2013-02-15 15:26:00,
2013-02-15 08:36:00,20.8,11.9,30.41,NE,55,0.0,3.0,68,0.00,,,0.00,Wunderground v.1.15,2013-02-15 15:36:00,
2013-02-15 08:46:00,21.0,12.1,30.41,SE,137,0.0,3.0,68,0.00,,,0.00,Wunderground v.1.15,2013-02-15 15:46:00,
2013-02-15 08:56:00,21.1,12.2,30.41,SE,137,0.0,3.0,68,0.00,,,0.00,Wunderground v.1.15,2013-02-15 15:56:00,
2013-02-15 09:07:00,21.8,12.9,30.41,SE,137,0.0,3.0,68,0.00,,,0.00,Wunderground v.1.15,2013-02-15 16:07:00,
2013-02-15 09:16:00,22.1,12.8,30.41,SE,137,0.0,3.0,67,0.00,,,0.00,Wunderground v.1.15,2013-02-15 16:16:00,
2013-02-15 09:21:00,22.4,13.1,30.39,SE,137,0.0,3.0,67,0.00,,,0.00,Wunderground v.1.15,2013-02-15 16:21:00,
2013-02-15 09:31:00,23.5,14.1,30.39,SE,137,0.0,3.0,67,0.00,,,0.00,Wunderground v.1.15,2013-02-15 16:31:00,
2013-02-15 09:41:00,25.4,16.3,30.39,SE,136,0.0,3.0,68,0.00,,,0.00,Wunderground v.1.15,2013-02-15 16:41:00,
2013-02-15 09:46:00,26.1,16.3,30.38,SE,136,0.0,3.0,66,0.00,,,0.00,Wunderground v.1.15,2013-02-15 16:46:00,
2013-02-15 09:56:00,27.8,16.1,30.38,SE,136,0.0,3.0,61,0.00,,,0.00,Wunderground v.1.15,2013-02-15 16:56:00,
2013-02-15 10:11:00,28.5,15.2,30.36,SE,138,0.0,3.0,57,0.00,,,0.00,Wunderground v.1.15,2013-02-15 17:11:00,
2013-02-15 10:21:00,29.5,15.7,30.35,SE,138,0.0,3.0,56,0.00,,,0.00,Wunderground v.1.15,2013-02-15 17:21:00,
2013-02-15 10:26:00,30.0,15.3,30.35,SE,138,0.0,3.0,54,0.00,,,0.00,Wunderground v.1.15,2013-02-15 17:26:00,
2013-02-15 12:01:00,35.6,13.0,30.28,SSW,202,0.0,3.0,39,0.00,,,0.01,Wunderground v.1.15,2013-02-15 19:01:00,
2013-02-15 12:07:00,35.5,13.0,30.28,SSW,202,0.0,3.0,39,0.00,,,0.01,Wunderground v.1.15,2013-02-15 19:07:00,
2013-02-15 12:16:00,35.8,13.8,30.28,SSW,202,0.0,3.0,40,0.00,,,0.01,Wunderground v.1.15,2013-02-15 19:16:00,
2013-02-15 12:21:00,35.8,13.8,30.28,West,263,0.0,3.0,40,0.00,,,0.01,Wunderground v.1.15,2013-02-15 19:21:00,
2013-02-15 12:31:00,36.0,13.4,30.30,West,263,0.0,3.0,39,0.00,,,0.01,Wunderground v.1.15,2013-02-15 19:31:00,
2013-02-15 12:36:00,36.2,13.6,30.30,WNW,285,0.0,3.0,39,0.00,,,0.01,Wunderground v.1.15,2013-02-15 19:36:00,
2013-02-15 12:46:00,36.3,14.3,30.30,WNW,301,0.0,3.0,40,0.00,,,0.01,Wunderground v.1.15,2013-02-15 19:46:00,
2013-02-15 12:51:00,36.5,12.7,30.30,WNW,301,0.0,3.0,37,0.00,,,0.01,Wunderground v.1.15,2013-02-15 19:51:00,
2013-02-15 13:01:00,36.5,11.4,30.30,SSE,165,0.0,3.0,35,0.00,,,0.01,Wunderground v.1.15,2013-02-15 20:01:00,
2013-02-15 13:07:00,36.8,11.0,30.28,South,172,0.0,3.0,34,0.00,,,0.01,Wunderground v.1.15,2013-02-15 20:07:00,
2013-02-15 13:16:00,37.2,11.4,30.28,South,186,0.0,3.0,34,0.00,,,0.01,Wunderground v.1.15,2013-02-15 20:16:00,
2013-02-15 13:21:00,37.3,12.1,30.28,SW,223,0.0,3.0,35,0.00,,,0.01,Wunderground v.1.15,2013-02-15 20:21:00,
2013-02-15 13:31:00,37.8,11.2,30.29,SSE,157,0.0,3.0,33,0.00,,,0.01,Wunderground v.1.15,2013-02-15 20:31:00,
2013-02-15 13:41:00,37.6,10.4,30.29,SSW,198,0.0,3.0,32,0.00,,,0.01,Wunderground v.1.15,2013-02-15 20:41:00,
2013-02-15 13:51:00,37.3,10.1,30.31,WSW,256,0.0,3.0,32,0.00,,,0.01,Wunderground v.1.15,2013-02-15 20:51:00,
2013-02-15 14:01:00,37.2,9.3,30.31,NNW,343,0.0,3.0,31,0.00,,,0.01,Wunderground v.1.15,2013-02-15 21:01:00,
2013-02-15 14:07:00,37.0,9.1,30.31,ENE,71,0.0,3.0,31,0.00,,,0.01,Wunderground v.1.15,2013-02-15 21:07:00,
2013-02-15 14:16:00,36.9,9.0,30.31,SSW,208,0.0,3.0,31,0.00,,,0.01,Wunderground v.1.15,2013-02-15 21:16:00,
2013-02-15 14:21:00,36.6,9.5,30.32,SSW,200,0.0,3.0,32,0.00,,,0.01,Wunderground v.1.15,2013-02-15 21:21:00,
2013-02-15 14:26:00,36.6,8.8,30.32,NE,40,0.0,3.0,31,0.00,,,0.01,Wunderground v.1.15,2013-02-15 21:26:00,
2013-02-15 14:36:00,36.6,9.5,30.34,WNW,301,0.0,3.0,32,0.00,,,0.01,Wunderground v.1.15,2013-02-15 21:36:00,
2013-02-15 14:46:00,37.3,10.1,30.34,NNW,340,0.0,3.0,32,0.00,,,0.01,Wunderground v.1.15,2013-02-15 21:46:00,
2013-02-15 14:51:00,37.5,10.3,30.35,SW,227,0.0,3.0,32,0.00,,,0.01,Wunderground v.1.15,2013-02-15 21:51:00,
2013-02-15 15:01:00,37.5,9.6,30.35,SSW,199,0.0,3.0,31,0.00,,,0.01,Wunderground v.1.15,2013-02-15 22:01:00,
2013-02-15 15:11:00,37.6,9.6,30.33,ESE,107,0.0,3.0,31,0.00,,,0.01,Wunderground v.1.15,2013-02-15 22:11:00,
2013-02-15 15:21:00,38.2,10.2,30.33,NNW,347,0.0,3.0,31,0.00,,,0.01,Wunderground v.1.15,2013-02-15 22:21:00,
2013-02-15 15:26:00,38.5,8.9,30.33,NNE,31,0.0,3.0,29,0.00,,,0.01,Wunderground v.1.15,2013-02-15 22:26:00,
2013-02-15 15:31:00,38.6,8.2,30.34,SE,133,0.0,3.0,28,0.00,,,0.01,Wunderground v.1.15,2013-02-15 22:31:00,
2013-02-15 15:41:00,38.5,8.9,30.34,WSW,253,0.0,3.0,29,0.00,,,0.01,Wunderground v.1.15,2013-02-15 22:41:00,
2013-02-15 15:46:00,38.6,7.4,30.35,NNW,342,0.0,3.0,27,0.00,,,0.01,Wunderground v.1.15,2013-02-15 22:46:00,
2013-02-15 17:11:00,34.3,13.6,30.38,NE,37,0.0,3.0,42,0.00,,,0.01,Wunderground v.1.15,2013-02-16 00:11:00,
2013-02-15 17:16:00,34.0,13.3,30.39,NE,37,0.0,3.0,42,0.00,,,0.01,Wunderground v.1.15,2013-02-16 00:16:00,
2013-02-15 17:21:00,33.7,13.5,30.39,NE,37,0.0,3.0,43,0.00,,,0.01,Wunderground v.1.15,2013-02-16 00:21:00,
2013-02-15 17:31:00,33.1,13.5,30.39,NE,37,0.0,3.0,44,0.00,,,0.01,Wunderground v.1.15,2013-02-16 00:31:00,
2013-02-15 17:36:00,32.8,13.2,30.36,NE,37,0.0,3.0,44,0.00,,,0.01,Wunderground v.1.15,2013-02-16 00:36:00,
2013-02-15 17:46:00,32.4,13.4,30.36,NE,37,0.0,3.0,45,0.00,,,0.01,Wunderground v.1.15,2013-02-16 00:46:00,
2013-02-15 17:51:00,32.1,13.6,30.38,NE,37,0.0,3.0,46,0.00,,,0.01,Wunderground v.1.15,2013-02-16 00:51:00,
2013-02-15 18:01:00,31.6,13.2,30.38,NE,37,0.0,3.0,46,0.00,,,0.01,Wunderground v.1.15,2013-02-16 01:01:00,
2013-02-15 18:07:00,31.3,13.4,30.38,NE,37,0.0,3.0,47,0.00,,,0.01,Wunderground v.1.15,2013-02-16 01:07:00,
2013-02-15 18:16:00,30.9,13.5,30.38,NNE,31,0.0,3.0,48,0.00,,,0.01,Wunderground v.1.15,2013-02-16 01:16:00,
2013-02-15 18:22:00,30.7,13.8,30.38,NNE,31,0.0,3.0,49,0.00,,,0.01,Wunderground v.1.15,2013-02-16 01:22:00,
2013-02-15 18:31:00,30.3,13.4,30.38,NNE,31,0.0,3.0,49,0.00,,,0.01,Wunderground v.1.15,2013-02-16 01:31:00,
2013-02-15 18:36:00,30.1,13.7,30.39,NE,35,0.0,3.0,50,0.00,,,0.01,Wunderground v.1.15,2013-02-16 01:36:00,
2013-02-15 18:46:00,29.7,13.3,30.39,NE,35,0.0,3.0,50,0.00,,,0.01,Wunderground v.1.15,2013-02-16 01:46:00,
2013-02-15 18:51:00,29.5,13.6,30.38,NE,35,0.0,3.0,51,0.00,,,0.01,Wunderground v.1.15,2013-02-16 01:51:00,
2013-02-15 19:01:00,29.3,13.8,30.38,NE,35,0.0,3.0,52,0.00,,,0.01,Wunderground v.1.15,2013-02-16 02:01:00,
2013-02-15 19:07:00,29.0,13.6,30.40,NE,35,0.0,3.0,52,0.00,,,0.01,Wunderground v.1.15,2013-02-16 02:07:00,
2013-02-15 19:16:00,28.7,13.7,30.40,NE,35,0.0,3.0,53,0.00,,,0.01,Wunderground v.1.15,2013-02-16 02:16:00,
2013-02-15 19:21:00,28.5,13.5,30.40,NE,35,0.0,3.0,53,0.00,,,0.01,Wunderground v.1.15,2013-02-16 02:21:00,
2013-02-15 19:31:00,28.2,13.7,30.39,NE,35,0.0,3.0,54,0.00,,,0.01,Wunderground v.1.15,2013-02-16 02:31:00,
2013-02-15 19:37:00,28.1,13.6,30.39,NE,35,0.0,3.0,54,0.00,,,0.01,Wunderground v.1.15,2013-02-16 02:37:00,
2013-02-15 19:46:00,27.8,13.3,30.38,NE,35,0.0,3.0,54,0.00,,,0.01,Wunderground v.1.15,2013-02-16 02:46:00,
2013-02-15 19:56:00,27.3,13.2,30.38,NE,35,0.0,3.0,55,0.00,,,0.01,Wunderground v.1.15,2013-02-16 02:56:00,
2013-02-15 20:07:00,26.9,13.3,30.39,NE,35,0.0,3.0,56,0.00,,,0.01,Wunderground v.1.15,2013-02-16 03:07:00,
2013-02-15 20:16:00,26.4,13.2,30.39,NE,35,0.0,3.0,57,0.00,,,0.01,Wunderground v.1.15,2013-02-16 03:16:00,
2013-02-15 20:21:00,26.3,13.1,30.38,NE,35,0.0,3.0,57,0.00,,,0.01,Wunderground v.1.15,2013-02-16 03:21:00,
2013-02-15 20:26:00,26.1,13.3,30.38,NE,35,0.0,3.0,58,0.00,,,0.01,Wunderground v.1.15,2013-02-16 03:26:00,
2013-02-15 20:31:00,26.1,14.1,30.36,NE,51,0.0,3.0,60,0.00,,,0.01,Wunderground v.1.15,2013-02-16 03:31:00,
2013-02-15 20:41:00,26.4,14.8,30.36,NE,51,0.0,3.0,61,0.00,,,0.01,Wunderground v.1.15,2013-02-16 03:41:00,
2013-02-15 20:46:00,26.6,14.9,30.36,NE,48,0.0,3.0,61,0.00,,,0.01,Wunderground v.1.15,2013-02-16 03:46:00,
2013-02-15 20:51:00,26.7,15.0,30.36,NE,48,0.0,3.0,61,0.00,,,0.01,Wunderground v.1.15,2013-02-16 03:51:00,
2013-02-15 21:01:00,26.7,15.0,30.36,NE,47,0.0,3.0,61,0.00,,,0.01,Wunderground v.1.15,2013-02-16 04:01:00,
2013-02-15 21:07:00,26.7,15.0,30.36,NE,47,0.0,3.0,61,0.00,,,0.01,Wunderground v.1.15,2013-02-16 04:07:00,
2013-02-15 21:16:00,26.6,14.9,30.36,NE,47,0.0,3.0,61,0.00,,,0.01,Wunderground v.1.15,2013-02-16 04:16:00,
2013-02-15 21:21:00,26.4,14.8,30.35,NE,47,0.0,3.0,61,0.00,,,0.01,Wunderground v.1.15,2013-02-16 04:21:00,
2013-02-15 21:31:00,26.3,14.7,30.31,NE,47,0.0,3.0,61,0.00,,,0.01,Wunderground v.1.15,2013-02-16 04:31:00,
2013-02-15 21:41:00,26.1,14.5,30.31,NE,47,0.0,3.0,61,0.00,,,0.01,Wunderground v.1.15,2013-02-16 04:41:00,
2013-02-15 21:46:00,26.0,14.4,30.31,NE,47,0.0,3.0,61,0.00,,,0.01,Wunderground v.1.15,2013-02-16 04:46:00,
2013-02-15 21:56:00,25.7,14.1,30.31,NE,47,0.0,3.0,61,0.00,,,0.01,Wunderground v.1.15,2013-02-16 04:56:00,
2013-02-15 22:01:00,25.4,13.8,30.30,NE,47,0.0,3.0,61,0.00,,,0.01,Wunderground v.1.15,2013-02-16 05:01:00,
2013-02-15 22:07:00,25.3,13.7,30.30,NE,47,0.0,3.0,61,0.00,,,0.01,Wunderground v.1.15,2013-02-16 05:07:00,
2013-02-15 22:16:00,24.7,12.8,30.30,NE,47,0.0,3.0,60,0.00,,,0.01,Wunderground v.1.15,2013-02-16 05:16:00,
2013-02-15 22:21:00,24.4,12.5,30.30,NE,47,0.0,3.0,60,0.00,,,0.01,Wunderground v.1.15,2013-02-16 05:21:00,
2013-02-15 22:31:00,23.6,11.7,30.30,NE,47,0.0,3.0,60,0.00,,,0.01,Wunderground v.1.15,2013-02-16 05:31:00,
2013-02-15 22:36:00,23.3,11.4,30.27,NE,47,0.0,3.0,60,0.00,,,0.01,Wunderground v.1.15,2013-02-16 05:36:00,